Time;durP1;ratioP1;P1;durP2;ratioP2;P2;SDS_P1;SDS_P2;PMS_P1;PMS_P2;Temp;Humidity;BMP_temperature;BMP_pressure;BME280_temperature;BME280_humidity;BME280_pressure;Samples;Min_cycle;Max_cycle;Signal;HPM_P1;HPM_P2
2021/09/10 00:00:11;;;;;;;2.67;2.47;;;29.30;64.90;;;;;;5143938;27;20528;-42
2021/09/10 00:02:43;;;;;;;3.90;1.90;;;29.30;63.30;;;;;;5144514;27;20478;-43
2021/09/10 00:05:14;;;;;;;2.13;1.93;;;29.40;63.40;;;;;;5143945;27;20443;-42
2021/09/10 00:07:45;;;;;;;2.23;2.13;;;29.30;63.50;;;;;;5144665;27;20438;-42
2021/09/10 00:10:16;;;;;;;2.43;2.20;;;29.20;65.50;;;;;;5144044;27;20459;-42
2021/09/10 00:12:47;;;;;;;2.10;1.83;;;28.90;68.20;;;;;;5144344;27;20478;-43
2021/09/10 00:15:18;;;;;;;2.77;1.93;;;28.70;67.60;;;;;;5144421;27;20477;-42
2021/09/10 00:17:51;;;;;;;2.10;1.90;;;28.60;69.90;;;;;;5144321;27;20446;-42
2021/09/10 00:20:22;;;;;;;3.73;2.03;;;28.40;67.40;;;;;;5144649;27;20477;-43
2021/09/10 00:22:53;;;;;;;2.73;2.20;;;28.40;66.50;;;;;;5144448;27;20433;-43
2021/09/10 00:25:24;;;;;;;3.43;2.40;;;28.30;64.80;;;;;;5142906;27;20507;-43
2021/09/10 00:27:55;;;;;;;2.67;2.03;;;28.30;64.60;;;;;;5143233;27;20475;-41
2021/09/10 00:30:26;;;;;;;3.40;2.57;;;28.20;64.20;;;;;;5142946;27;20484;-42
2021/09/10 00:32:59;;;;;;;2.77;2.57;;;28.10;68.90;;;;;;5142670;27;20484;-43
2021/09/10 00:35:30;;;;;;;2.67;2.27;;;28.10;66.50;;;;;;5143777;27;20480;-43
2021/09/10 00:38:01;;;;;;;2.67;2.23;;;28.00;68.40;;;;;;5141780;27;20475;-43
2021/09/10 00:40:33;;;;;;;2.00;1.90;;;28.00;71.00;;;;;;5143479;27;20446;-44
2021/09/10 00:43:04;;;;;;;2.83;2.63;;;27.90;68.10;;;;;;5143491;27;20453;-44
2021/09/10 00:45:35;;;;;;;2.70;2.50;;;28.00;66.20;;;;;;5142950;27;20448;-42
2021/09/10 00:48:09;;;;;;;2.50;2.30;;;28.10;67.60;;;;;;5143626;27;20480;-43
2021/09/10 00:50:40;;;;;;;2.60;1.80;;;28.30;68.70;;;;;;5142542;28;20938;-42
2021/09/10 00:53:12;;;;;;;2.03;1.73;;;28.60;70.40;;;;;;5127526;28;20455;-42
2021/09/10 00:55:44;;;;;;;4.10;1.70;;;28.60;72.80;;;;;;5143032;28;20476;-41
2021/09/10 00:58:16;;;;;;;2.00;1.90;;;28.60;73.90;;;;;;5143658;27;20503;-42
2021/09/10 01:00:47;;;;;;;2.00;1.90;;;28.60;75.60;;;;;;5143365;28;20467;-42
2021/09/10 01:03:21;;;;;;;1.70;1.60;;;28.50;77.10;;;;;;5140675;28;20580;-43
2021/09/10 01:05:53;;;;;;;1.83;1.30;;;28.30;78.30;;;;;;5143875;27;20469;-44
2021/09/10 01:08:25;;;;;;;1.83;1.70;;;28.10;79.60;;;;;;5143588;28;20449;-43
2021/09/10 01:10:56;;;;;;;1.70;1.43;;;28.20;80.30;;;;;;5143301;27;20482;-44
2021/09/10 01:13:27;;;;;;;1.57;1.23;;;28.00;81.80;;;;;;5140570;28;20448;-42
2021/09/10 01:15:59;;;;;;;3.13;2.87;;;28.00;82.80;;;;;;5144270;27;20446;-42
2021/09/10 01:18:32;;;;;;;3.20;2.17;;;27.80;83.00;;;;;;5147686;27;20448;-42
2021/09/10 01:21:03;;;;;;;3.10;1.80;;;27.60;83.70;;;;;;5147259;27;20441;-42
2021/09/10 01:23:34;;;;;;;1.33;1.23;;;27.50;84.90;;;;;;5148110;27;20923;-42
2021/09/10 01:26:06;;;;;;;1.97;1.43;;;27.50;85.60;;;;;;5146662;27;20997;-42
2021/09/10 01:28:37;;;;;;;1.53;1.30;;;27.40;86.30;;;;;;5146775;27;20451;-42
2021/09/10 01:31:09;;;;;;;1.53;1.43;;;27.20;86.90;;;;;;5147554;27;20580;-42
2021/09/10 01:33:40;;;;;;;1.30;1.20;;;27.00;87.80;;;;;;5147347;27;20784;-42
2021/09/10 01:36:14;;;;;;;3.27;1.60;;;26.90;89.40;;;;;;5147082;27;20474;-42
2021/09/10 01:38:45;;;;;;;1.60;1.50;;;26.70;90.20;;;;;;5146722;27;20474;-42
2021/09/10 01:41:18;;;;;;;2.67;1.50;;;26.70;90.70;;;;;;5147506;27;20597;-43
2021/09/10 01:43:49;;;;;;;1.63;1.53;;;26.50;90.90;;;;;;5146981;27;20576;-42
2021/09/10 01:46:20;;;;;;;3.77;1.47;;;26.30;91.70;;;;;;5146276;27;20448;-42
2021/09/10 01:48:51;;;;;;;1.63;1.53;;;26.30;92.10;;;;;;5146195;27;20438;-43
2021/09/10 01:51:30;;;;;;;1.73;1.37;;;26.30;92.40;;;;;;5137871;27;20440;-42
2021/09/10 01:54:02;;;;;;;3.13;1.50;;;26.20;92.80;;;;;;5146409;27;20454;-42
2021/09/10 01:56:34;;;;;;;2.70;1.70;;;26.00;93.20;;;;;;5146632;27;20470;-42
2021/09/10 01:59:05;;;;;;;1.20;1.10;;;26.00;93.70;;;;;;5146574;27;20454;-42
2021/09/10 02:01:36;;;;;;;2.17;1.60;;;25.90;94.00;;;;;;5146800;27;20457;-42
2021/09/10 02:04:08;;;;;;;2.30;1.00;;;25.80;94.50;;;;;;5146616;27;20532;-42
2021/09/10 02:06:39;;;;;;;1.97;1.20;;;25.70;94.80;;;;;;5145487;27;20469;-42
2021/09/10 02:09:10;;;;;;;2.67;1.23;;;25.60;95.50;;;;;;5144933;27;20467;-42
2021/09/10 02:11:43;;;;;;;1.10;1.03;;;25.50;96.00;;;;;;5146950;27;20485;-41
2021/09/10 02:14:14;;;;;;;1.97;1.37;;;25.30;96.40;;;;;;5145654;27;20481;-42
2021/09/10 02:16:45;;;;;;;1.57;1.20;;;25.30;96.70;;;;;;5146176;27;20520;-42
2021/09/10 02:19:16;;;;;;;1.20;1.10;;;25.20;97.30;;;;;;5144876;27;20434;-42
2021/09/10 02:21:47;;;;;;;2.27;1.10;;;25.00;97.90;;;;;;5144092;27;20500;-42
2021/09/10 02:24:18;;;;;;;2.07;1.13;;;24.90;98.40;;;;;;5145488;27;20540;-42
2021/09/10 02:26:51;;;;;;;1.00;0.90;;;24.80;99.00;;;;;;5145848;27;20460;-42
2021/09/10 02:29:22;;;;;;;1.80;1.70;;;24.70;99.50;;;;;;5143915;27;20506;-42
2021/09/10 02:31:53;;;;;;;1.37;1.20;;;24.60;99.60;;;;;;5146276;27;20480;-42
2021/09/10 02:34:24;;;;;;;1.50;1.40;;;24.60;99.90;;;;;;5145910;27;20468;-42
2021/09/10 02:36:55;;;;;;;1.50;1.40;;;24.50;99.90;;;;;;5146250;27;20441;-41
2021/09/10 02:39:26;;;;;;;1.60;1.30;;;24.40;99.90;;;;;;5142657;27;20474;-42
2021/09/10 02:41:58;;;;;;;1.33;1.10;;;24.30;99.90;;;;;;5145139;27;20484;-42
2021/09/10 02:44:30;;;;;;;2.10;1.50;;;24.20;99.90;;;;;;5145515;27;20505;-41
2021/09/10 02:47:01;;;;;;;1.90;1.80;;;24.10;99.90;;;;;;5145949;27;20445;-42
2021/09/10 02:49:31;;;;;;;2.07;1.67;;;24.00;99.90;;;;;;5145843;27;20448;-42
2021/09/10 02:52:04;;;;;;;4.80;4.47;;;24.00;99.90;;;;;;5145859;27;21162;-42
2021/09/10 02:54:35;;;;;;;3.43;2.37;;;23.90;99.90;;;;;;5144690;27;20815;-42
2021/09/10 02:57:08;;;;;;;2.03;1.30;;;23.80;99.90;;;;;;5145229;27;20547;-42
2021/09/10 02:59:39;;;;;;;1.70;1.40;;;23.70;99.90;;;;;;5144669;27;20473;-42
2021/09/10 03:02:10;;;;;;;4.37;1.60;;;23.60;99.90;;;;;;5145209;27;20517;-42
2021/09/10 03:04:44;;;;;;;2.23;1.90;;;23.50;99.90;;;;;;5147737;27;20528;-42
2021/09/10 03:07:15;;;;;;;8.07;5.03;;;23.40;99.90;;;;;;5145259;27;20452;-42
2021/09/10 03:09:46;;;;;;;5.80;1.97;;;23.40;99.90;;;;;;5144196;27;20481;-41
2021/09/10 03:12:19;;;;;;;3.03;1.60;;;23.30;99.90;;;;;;5145215;27;20455;-41
2021/09/10 03:14:50;;;;;;;2.70;1.60;;;23.20;99.90;;;;;;5138994;27;20851;-41
2021/09/10 03:17:21;;;;;;;2.37;1.53;;;23.10;99.90;;;;;;5145325;27;20441;-41
2021/09/10 03:19:52;;;;;;;4.07;1.60;;;22.90;99.90;;;;;;5145376;27;20433;-42
2021/09/10 03:22:23;;;;;;;4.00;1.87;;;22.90;99.90;;;;;;5145094;27;20517;-42
2021/09/10 03:24:54;;;;;;;2.50;1.70;;;22.90;99.90;;;;;;5144259;27;20531;-42
2021/09/10 03:27:27;;;;;;;2.20;2.00;;;22.80;99.90;;;;;;5144663;27;20460;-42
2021/09/10 03:29:58;;;;;;;1.70;1.60;;;22.70;99.90;;;;;;5144981;27;20457;-42
2021/09/10 03:32:30;;;;;;;3.20;1.67;;;22.60;99.90;;;;;;5145059;27;20511;-42
2021/09/10 03:35:01;;;;;;;3.00;1.90;;;22.60;99.90;;;;;;5144474;27;20476;-41
2021/09/10 03:37:32;;;;;;;1.90;1.80;;;22.50;99.90;;;;;;5144719;27;20453;-42
2021/09/10 03:40:03;;;;;;;2.87;1.97;;;22.50;99.90;;;;;;5143510;27;20507;-42
2021/09/10 03:42:39;;;;;;;3.23;1.70;;;22.30;99.90;;;;;;5144685;27;20448;-42
2021/09/10 03:45:11;;;;;;;4.80;2.33;;;22.30;99.90;;;;;;5145054;27;20504;-42
2021/09/10 03:47:42;;;;;;;3.50;1.60;;;22.20;99.90;;;;;;5145168;27;20437;-41
2021/09/10 03:50:13;;;;;;;3.30;1.80;;;22.20;99.90;;;;;;5150318;27;20412;-42
2021/09/10 03:52:44;;;;;;;2.60;1.70;;;22.10;99.90;;;;;;5143288;27;20441;-42
2021/09/10 03:55:17;;;;;;;5.53;1.53;;;22.00;99.90;;;;;;5144141;27;20488;-41
2021/09/10 03:57:49;;;;;;;2.53;1.83;;;22.00;99.90;;;;;;5143531;27;20423;-42
2021/09/10 04:00:20;;;;;;;1.97;1.73;;;21.90;99.90;;;;;;5144370;27;20916;-42
2021/09/10 04:02:51;;;;;;;2.30;2.10;;;21.80;99.90;;;;;;5140527;27;20473;-41
2021/09/10 04:05:24;;;;;;;2.10;1.80;;;21.70;99.90;;;;;;5143335;27;20460;-42
2021/09/10 04:07:54;;;;;;;2.77;2.10;;;21.70;99.90;;;;;;5143963;27;20460;-42
2021/09/10 04:10:25;;;;;;;2.23;1.63;;;21.60;99.90;;;;;;5143565;27;20805;-42
2021/09/10 04:12:58;;;;;;;3.40;1.73;;;21.40;99.90;;;;;;5128177;27;20529;-42
2021/09/10 04:15:29;;;;;;;2.60;1.57;;;21.40;99.90;;;;;;5144591;27;20517;-42
2021/09/10 04:18:01;;;;;;;1.67;1.30;;;21.20;99.90;;;;;;5143854;27;20483;-42
2021/09/10 04:20:33;;;;;;;3.37;2.00;;;21.10;99.90;;;;;;5144595;27;20435;-42
2021/09/10 04:23:05;;;;;;;2.00;1.50;;;21.10;99.90;;;;;;5131398;27;20440;-42
2021/09/10 04:25:38;;;;;;;2.00;1.77;;;21.10;99.90;;;;;;5143957;27;20472;-42
2021/09/10 04:28:12;;;;;;;1.73;1.63;;;21.00;99.90;;;;;;5143538;27;20460;-42
2021/09/10 04:30:43;;;;;;;2.40;2.20;;;20.90;99.90;;;;;;5144129;27;20453;-42
2021/09/10 04:33:15;;;;;;;2.40;1.40;;;20.90;99.90;;;;;;5143186;27;20577;-42
2021/09/10 04:35:46;;;;;;;1.50;1.40;;;20.70;99.90;;;;;;5144431;27;20514;-42
2021/09/10 04:38:17;;;;;;;2.47;1.90;;;20.60;99.90;;;;;;5142441;27;20420;-42
2021/09/10 04:40:48;;;;;;;2.93;1.50;;;20.60;99.90;;;;;;5143216;27;20453;-42
2021/09/10 04:43:21;;;;;;;1.67;1.57;;;20.60;99.90;;;;;;5144133;27;20791;-42
2021/09/10 04:45:52;;;;;;;2.07;1.90;;;20.50;99.90;;;;;;5143977;27;20459;-42
2021/09/10 04:48:23;;;;;;;2.13;1.77;;;20.40;99.90;;;;;;5144300;27;20452;-42
2021/09/10 04:50:54;;;;;;;1.40;1.30;;;20.40;99.90;;;;;;5143599;27;20445;-42
2021/09/10 04:53:25;;;;;;;1.67;1.57;;;20.40;99.90;;;;;;5144150;27;20431;-41
2021/09/10 04:55:57;;;;;;;2.23;1.53;;;20.30;99.90;;;;;;5143468;27;20461;-42
2021/09/10 04:58:30;;;;;;;2.30;1.30;;;20.20;99.90;;;;;;5139920;27;20559;-41
2021/09/10 05:01:00;;;;;;;1.30;1.20;;;20.20;99.90;;;;;;5143821;28;20491;-41
2021/09/10 05:03:33;;;;;;;2.00;1.33;;;20.20;99.90;;;;;;5143322;27;20415;-41
2021/09/10 05:06:04;;;;;;;2.00;1.30;;;20.20;99.90;;;;;;5143107;28;20460;-41
2021/09/10 05:08:36;;;;;;;2.10;1.70;;;20.10;99.90;;;;;;5142109;27;20456;-42
2021/09/10 05:11:08;;;;;;;1.77;1.53;;;20.00;99.90;;;;;;5143754;27;20820;-42
2021/09/10 05:13:40;;;;;;;1.70;1.50;;;20.00;99.90;;;;;;5143706;28;20496;-42
2021/09/10 05:16:28;;;;;;;1.97;1.87;;;19.90;99.90;;;;;;5132472;28;20508;-41
2021/09/10 05:18:59;;;;;;;2.07;1.87;;;19.90;99.90;;;;;;5142332;27;20919;-42
2021/09/10 05:21:30;;;;;;;1.57;1.47;;;19.90;99.90;;;;;;5144436;27;20411;-42
2021/09/10 05:24:01;;;;;;;1.70;1.60;;;19.80;99.90;;;;;;5142943;27;20447;-42
2021/09/10 05:26:32;;;;;;;2.10;1.90;;;19.80;99.90;;;;;;5143670;27;20521;-42
2021/09/10 05:29:05;;;;;;;1.63;1.53;;;19.70;99.90;;;;;;5140980;27;20444;-42
2021/09/10 05:31:54;;;;;;;1.97;1.87;;;19.70;99.90;;;;;;5141036;27;20812;-42
2021/09/10 05:34:25;;;;;;;1.80;1.70;;;19.60;99.90;;;;;;5137896;28;20418;-41
2021/09/10 05:36:56;;;;;;;1.80;1.43;;;19.60;99.90;;;;;;5141296;28;20444;-41
2021/09/10 05:39:27;;;;;;;3.10;1.60;;;19.60;99.90;;;;;;5141334;27;20424;-42
2021/09/10 05:41:59;;;;;;;1.60;1.43;;;19.50;99.90;;;;;;5143685;27;20448;-42
2021/09/10 05:44:31;;;;;;;2.10;1.60;;;19.50;99.90;;;;;;5142605;27;20472;-41
2021/09/10 05:47:03;;;;;;;1.57;1.43;;;19.50;99.90;;;;;;5143342;27;20455;-42
2021/09/10 05:49:34;;;;;;;1.43;1.30;;;19.40;99.90;;;;;;5142336;27;20439;-42
2021/09/10 05:52:09;;;;;;;1.17;1.10;;;19.40;99.90;;;;;;5144075;27;20439;-41
2021/09/10 05:54:41;;;;;;;2.67;1.43;;;19.40;99.90;;;;;;5142421;27;20480;-42
2021/09/10 05:57:12;;;;;;;3.40;2.07;;;19.40;99.90;;;;;;5143518;28;20420;-42
2021/09/10 05:59:45;;;;;;;3.20;1.80;;;19.40;99.90;;;;;;5141439;28;20419;-41
2021/09/10 06:02:16;;;;;;;2.30;2.10;;;19.30;99.90;;;;;;5143464;27;20431;-41
2021/09/10 06:04:48;;;;;;;2.53;1.80;;;19.30;99.90;;;;;;5146439;27;20429;-42
2021/09/10 06:07:19;;;;;;;3.53;3.10;;;19.30;99.90;;;;;;5147420;27;20468;-42
2021/09/10 06:09:50;;;;;;;4.43;3.30;;;19.20;99.90;;;;;;5144706;27;20474;-41
2021/09/10 06:12:23;;;;;;;2.80;2.60;;;19.20;99.90;;;;;;5145604;27;20422;-41
2021/09/10 06:14:56;;;;;;;2.60;2.37;;;19.20;99.90;;;;;;5137754;27;20809;-41
2021/09/10 06:17:27;;;;;;;2.30;2.10;;;19.10;99.90;;;;;;5146850;27;20419;-41
2021/09/10 06:19:58;;;;;;;3.00;2.20;;;19.10;99.90;;;;;;5146126;27;20832;-42
2021/09/10 06:22:30;;;;;;;1.70;1.60;;;19.20;99.90;;;;;;5144028;27;20452;-41
2021/09/10 06:25:02;;;;;;;1.43;1.33;;;19.20;99.90;;;;;;5145554;27;20427;-41
2021/09/10 06:27:34;;;;;;;1.27;1.17;;;19.10;99.90;;;;;;5146241;27;20516;-42
2021/09/10 06:30:08;;;;;;;1.17;1.07;;;19.10;99.90;;;;;;5145125;27;20491;-41
2021/09/10 06:32:40;;;;;;;1.37;1.27;;;19.10;99.90;;;;;;5145061;27;20527;-42
2021/09/10 06:35:12;;;;;;;1.17;0.93;;;19.10;99.90;;;;;;5144865;27;20430;-42
2021/09/10 06:37:43;;;;;;;2.03;1.10;;;19.10;99.90;;;;;;5146362;27;20720;-41
2021/09/10 06:40:15;;;;;;;1.00;0.90;;;18.90;99.90;;;;;;5144502;27;20935;-42
2021/09/10 06:42:46;;;;;;;1.30;1.03;;;18.90;99.90;;;;;;5145994;27;20488;-42
2021/09/10 06:45:19;;;;;;;1.63;1.20;;;19.00;99.90;;;;;;5144531;27;20423;-41
2021/09/10 06:47:51;;;;;;;1.10;0.90;;;18.90;99.90;;;;;;5131017;27;20550;-42
2021/09/10 06:50:22;;;;;;;1.03;0.93;;;18.80;99.90;;;;;;5145439;27;20448;-42
2021/09/10 06:52:53;;;;;;;1.23;1.13;;;18.80;99.90;;;;;;5135670;27;21388;-42
2021/09/10 06:55:25;;;;;;;1.47;0.97;;;18.80;99.90;;;;;;5145290;27;20932;-42
2021/09/10 06:57:56;;;;;;;1.30;1.13;;;18.80;99.90;;;;;;5144877;27;20453;-42
2021/09/10 07:00:29;;;;;;;1.40;1.10;;;18.80;99.90;;;;;;5145348;27;20878;-41
2021/09/10 07:03:00;;;;;;;1.10;1.00;;;18.70;99.90;;;;;;5145406;27;20464;-42
2021/09/10 07:05:32;;;;;;;1.10;1.00;;;18.70;99.90;;;;;;5144696;27;20436;-42
2021/09/10 07:08:03;;;;;;;2.20;1.30;;;18.70;99.90;;;;;;5145038;27;20562;-41
2021/09/10 07:10:35;;;;;;;1.43;1.30;;;18.70;99.90;;;;;;5144443;27;20455;-42
2021/09/10 07:13:06;;;;;;;2.47;0.80;;;18.70;99.90;;;;;;5145264;27;20454;-42
2021/09/10 07:15:41;;;;;;;1.57;0.97;;;18.60;99.90;;;;;;5145099;27;20446;-42
2021/09/10 07:18:12;;;;;;;1.07;0.70;;;18.60;99.90;;;;;;5145781;27;20965;-42
2021/09/10 07:20:43;;;;;;;0.97;0.87;;;18.60;99.90;;;;;;5145217;27;20441;-42
2021/09/10 07:23:15;;;;;;;1.10;1.00;;;18.50;99.90;;;;;;5145136;27;20433;-42
2021/09/10 07:25:46;;;;;;;1.50;1.03;;;18.60;99.90;;;;;;5145310;27;20440;-42
2021/09/10 07:28:17;;;;;;;1.47;0.93;;;18.60;99.90;;;;;;5144835;27;20455;-42
2021/09/10 07:30:50;;;;;;;1.47;0.93;;;18.50;99.90;;;;;;5142762;27;20427;-42
2021/09/10 07:33:22;;;;;;;1.07;0.80;;;18.50;99.90;;;;;;5144862;27;20458;-42
2021/09/10 07:35:53;;;;;;;1.17;1.07;;;18.40;99.90;;;;;;5145711;27;20472;-42
2021/09/10 07:38:25;;;;;;;1.10;1.00;;;18.40;99.90;;;;;;5144522;27;20415;-42
2021/09/10 07:40:56;;;;;;;1.00;1.00;;;18.30;99.90;;;;;;5144116;27;20979;-42
2021/09/10 07:43:28;;;;;;;1.50;0.97;;;18.40;99.90;;;;;;5144860;27;20449;-42
2021/09/10 07:46:01;;;;;;;1.03;0.97;;;18.40;99.90;;;;;;5145320;27;20490;-42
2021/09/10 07:48:33;;;;;;;0.80;0.80;;;18.30;99.90;;;;;;5143950;27;20540;-42
2021/09/10 07:51:04;;;;;;;1.53;0.80;;;18.30;99.90;;;;;;5144717;27;20444;-42
2021/09/10 07:53:35;;;;;;;0.97;0.90;;;18.40;99.90;;;;;;5144712;27;20467;-42
2021/09/10 07:56:07;;;;;;;0.80;0.80;;;18.40;99.90;;;;;;5144270;27;20491;-41
2021/09/10 07:58:38;;;;;;;1.97;1.00;;;18.40;99.90;;;;;;5143792;27;20420;-41
2021/09/10 08:01:11;;;;;;;1.40;0.90;;;18.30;99.90;;;;;;5134545;27;20445;-42
2021/09/10 08:03:43;;;;;;;1.10;0.70;;;18.20;99.90;;;;;;5144491;27;20999;-42
2021/09/10 08:06:14;;;;;;;1.17;0.80;;;18.20;99.90;;;;;;5139948;27;20445;-41
2021/09/10 08:08:45;;;;;;;0.80;0.80;;;18.20;99.90;;;;;;5143497;27;20508;-42
2021/09/10 08:11:17;;;;;;;4.40;0.80;;;18.20;99.90;;;;;;5141979;27;20444;-42
2021/09/10 08:13:48;;;;;;;0.73;0.73;;;18.10;99.90;;;;;;5143425;27;20416;-41
2021/09/10 08:16:20;;;;;;;1.00;0.53;;;18.10;99.90;;;;;;5143991;27;20537;-41
2021/09/10 08:18:52;;;;;;;1.07;0.83;;;18.10;99.90;;;;;;5144135;27;20433;-42
2021/09/10 08:21:42;;;;;;;1.00;0.83;;;18.00;99.90;;;;;;5144394;27;20445;-41
2021/09/10 08:24:14;;;;;;;1.00;0.90;;;17.90;99.90;;;;;;5143697;27;20415;-42
2021/09/10 08:26:45;;;;;;;0.73;0.73;;;17.90;99.90;;;;;;5143284;27;20434;-42
2021/09/10 08:29:15;;;;;;;1.10;0.80;;;17.90;99.90;;;;;;5142568;27;20517;-41
2021/09/10 08:31:49;;;;;;;0.87;0.80;;;18.00;99.90;;;;;;5143488;27;20562;-41
2021/09/10 08:34:20;;;;;;;0.77;0.77;;;17.90;99.90;;;;;;5143550;27;20850;-41
2021/09/10 08:36:51;;;;;;;1.13;0.67;;;17.90;99.90;;;;;;5143608;27;20442;-41
2021/09/10 08:39:21;;;;;;;1.00;0.90;;;17.90;99.90;;;;;;5142627;27;20452;-41
2021/09/10 08:41:53;;;;;;;1.00;0.90;;;17.90;99.90;;;;;;5132822;27;20445;-41
2021/09/10 08:44:26;;;;;;;1.20;1.00;;;17.80;99.90;;;;;;5142547;27;20440;-41
2021/09/10 08:46:59;;;;;;;1.20;0.90;;;17.80;99.90;;;;;;5143126;27;20444;-41
2021/09/10 08:49:30;;;;;;;0.80;0.80;;;17.70;99.90;;;;;;5136245;28;20455;-42
2021/09/10 08:52:01;;;;;;;1.10;1.00;;;17.70;99.90;;;;;;5144265;27;20524;-42
2021/09/10 08:54:32;;;;;;;0.90;0.90;;;17.70;99.90;;;;;;5143253;28;20448;-42
2021/09/10 08:57:03;;;;;;;0.80;0.80;;;17.60;99.90;;;;;;5143806;27;20839;-42
2021/09/10 08:59:34;;;;;;;1.63;0.83;;;17.60;99.90;;;;;;5140356;28;20474;-44
2021/09/10 09:02:06;;;;;;;2.53;1.10;;;17.60;99.90;;;;;;5142288;28;20513;-42
2021/09/10 09:04:39;;;;;;;1.80;0.70;;;17.60;99.90;;;;;;5143219;28;21739;-42
2021/09/10 09:07:10;;;;;;;0.70;0.70;;;17.50;99.90;;;;;;5143954;27;20419;-42
2021/09/10 09:09:44;;;;;;;1.10;0.77;;;17.50;99.90;;;;;;5136455;28;20553;-42
2021/09/10 09:12:17;;;;;;;1.93;1.00;;;17.60;99.90;;;;;;5141099;28;20560;-41
2021/09/10 09:14:53;;;;;;;0.90;0.90;;;17.50;99.90;;;;;;5142616;28;20473;-41
2021/09/10 09:17:27;;;;;;;1.63;0.83;;;17.50;99.90;;;;;;5143225;28;20795;-41
2021/09/10 09:20:19;;;;;;;1.77;0.80;;;17.50;99.90;;;;;;5142876;27;20546;-41
2021/09/10 09:22:58;;;;;;;0.80;0.80;;;17.40;99.90;;;;;;5143267;27;20460;-41
2021/09/10 09:25:32;;;;;;;2.90;1.50;;;17.40;99.90;;;;;;5142931;27;20801;-41
2021/09/10 09:28:21;;;;;;;0.80;0.80;;;17.40;99.90;;;;;;5143332;27;20461;-41
2021/09/10 09:30:53;;;;;;;0.97;0.70;;;17.40;99.90;;;;;;5142484;27;20450;-41
2021/09/10 09:33:28;;;;;;;1.03;0.77;;;17.40;99.90;;;;;;5142534;27;20501;-42
2021/09/10 09:36:01;;;;;;;0.80;0.80;;;17.40;99.90;;;;;;5141938;28;20448;-41
2021/09/10 09:38:34;;;;;;;0.60;0.60;;;17.30;99.90;;;;;;5145192;27;20458;-41
2021/09/10 09:41:07;;;;;;;0.50;0.50;;;17.30;99.90;;;;;;5146905;27;20448;-40
2021/09/10 09:43:40;;;;;;;1.57;0.80;;;17.30;99.90;;;;;;5147433;27;20476;-44
2021/09/10 09:46:13;;;;;;;0.80;0.80;;;17.30;99.90;;;;;;5146872;27;20493;-41
2021/09/10 09:48:48;;;;;;;1.10;0.87;;;17.30;99.90;;;;;;5147000;27;20502;-43
2021/09/10 09:51:20;;;;;;;1.20;1.10;;;17.30;99.90;;;;;;5146624;27;20445;-40
2021/09/10 09:53:51;;;;;;;1.00;0.90;;;17.20;99.90;;;;;;5146886;27;20448;-42
2021/09/10 09:56:26;;;;;;;0.90;0.77;;;17.20;99.90;;;;;;5133009;27;20433;-42
2021/09/10 09:58:57;;;;;;;1.77;1.10;;;17.30;99.90;;;;;;5145976;27;20495;-41
2021/09/10 10:01:29;;;;;;;1.07;1.07;;;17.20;99.90;;;;;;5145876;27;20536;-42
2021/09/10 10:04:04;;;;;;;1.40;1.30;;;17.20;99.90;;;;;;5146597;27;20423;-45
2021/09/10 10:06:37;;;;;;;0.87;0.83;;;17.20;99.90;;;;;;5146746;27;20449;-42
2021/09/10 10:09:12;;;;;;;0.93;0.93;;;17.20;99.90;;;;;;5145418;27;20590;-42
2021/09/10 10:11:46;;;;;;;0.90;0.90;;;17.20;99.90;;;;;;5146827;27;20447;-42
2021/09/10 10:14:30;;;;;;;1.30;1.20;;;17.30;99.90;;;;;;5145975;27;20445;-45
2021/09/10 10:17:02;;;;;;;3.30;1.00;;;17.20;99.90;;;;;;5147048;27;20444;-42
2021/09/10 10:19:47;;;;;;;1.27;1.17;;;17.20;99.90;;;;;;5146044;27;20514;-41
2021/09/10 10:22:34;;;;;;;4.20;1.10;;;17.10;99.90;;;;;;5143755;27;20543;-41
2021/09/10 10:25:07;;;;;;;1.23;1.00;;;17.10;99.90;;;;;;5145635;27;20468;-40
2021/09/10 10:27:46;;;;;;;1.20;1.10;;;17.20;99.90;;;;;;5145571;27;20534;-42
2021/09/10 10:30:49;;;;;;;0.80;0.80;;;17.10;99.90;;;;;;5143241;27;20586;-41
2021/09/10 10:33:29;;;;;;;0.80;0.80;;;17.10;99.90;;;;;;5144504;27;20472;-42
2021/09/10 10:36:32;;;;;;;0.80;0.80;;;17.10;99.90;;;;;;5146204;27;20422;-42
2021/09/10 10:39:26;;;;;;;0.67;0.67;;;17.00;99.90;;;;;;5145633;27;20452;-41
2021/09/10 10:41:59;;;;;;;0.67;0.60;;;17.00;99.90;;;;;;5145686;27;20445;-41
2021/09/10 10:44:51;;;;;;;1.80;0.83;;;17.10;99.90;;;;;;5144803;27;20465;-42
2021/09/10 10:47:34;;;;;;;0.90;0.90;;;17.00;99.90;;;;;;5146238;27;20440;-41
2021/09/10 10:50:05;;;;;;;1.10;1.10;;;17.00;99.90;;;;;;5145172;27;20516;-41
2021/09/10 10:52:40;;;;;;;1.10;0.73;;;16.90;99.90;;;;;;5144487;27;20452;-41
2021/09/10 10:55:23;;;;;;;1.20;0.83;;;16.90;99.90;;;;;;5145520;27;20444;-42
2021/09/10 10:57:55;;;;;;;0.80;0.80;;;16.90;99.90;;;;;;5144426;27;20454;-42
2021/09/10 11:01:00;;;;;;;1.50;1.00;;;17.00;99.90;;;;;;5145965;27;20419;-42
2021/09/10 11:03:36;;;;;;;1.37;1.10;;;17.00;99.90;;;;;;5142964;27;20445;-42
2021/09/10 11:06:38;;;;;;;2.00;1.27;;;17.10;99.90;;;;;;5145046;27;20479;-42
2021/09/10 11:09:14;;;;;;;1.20;1.10;;;17.10;99.90;;;;;;5141023;27;20531;-41
2021/09/10 11:11:51;;;;;;;0.70;0.70;;;17.20;99.90;;;;;;5144875;27;20412;-41
2021/09/10 11:14:32;;;;;;;0.67;0.67;;;17.20;99.90;;;;;;5145066;27;20449;-41
2021/09/10 11:17:12;;;;;;;0.80;0.80;;;17.30;99.90;;;;;;5145028;27;20444;-41
2021/09/10 11:19:47;;;;;;;3.30;1.20;;;17.40;99.90;;;;;;5145063;27;20468;-41
2021/09/10 11:22:18;;;;;;;1.30;1.20;;;17.30;99.90;;;;;;5145248;27;20564;-41
2021/09/10 11:24:51;;;;;;;0.97;0.80;;;17.40;99.90;;;;;;5143708;27;20420;-41
2021/09/10 11:27:27;;;;;;;0.67;0.67;;;17.50;99.90;;;;;;5138811;27;20412;-41
2021/09/10 11:30:06;;;;;;;0.90;0.90;;;17.60;99.90;;;;;;5134263;27;20493;-41
2021/09/10 11:32:38;;;;;;;1.27;1.00;;;17.60;99.90;;;;;;5144381;27;20484;-42
2021/09/10 11:35:22;;;;;;;0.73;0.73;;;17.60;99.90;;;;;;5132258;27;20480;-41
2021/09/10 11:37:54;;;;;;;1.00;0.90;;;17.60;99.90;;;;;;5144289;27;20811;-41
2021/09/10 11:40:41;;;;;;;2.00;0.70;;;17.50;99.90;;;;;;5143914;27;20521;-41
2021/09/10 11:43:13;;;;;;;1.37;0.90;;;17.60;99.90;;;;;;5143536;27;20888;-41
2021/09/10 11:45:48;;;;;;;1.13;1.00;;;17.60;99.90;;;;;;5130440;27;20465;-41
2021/09/10 11:48:22;;;;;;;0.87;0.87;;;17.70;99.90;;;;;;5144516;27;20418;-41
2021/09/10 11:50:58;;;;;;;2.17;1.10;;;17.70;99.90;;;;;;5139259;27;20484;-41
2021/09/10 11:53:31;;;;;;;1.10;1.00;;;17.80;99.90;;;;;;5144224;27;20455;-41
2021/09/10 11:56:07;;;;;;;0.70;0.70;;;17.80;99.90;;;;;;5143916;27;20933;-41
2021/09/10 11:58:40;;;;;;;1.00;0.80;;;17.80;99.90;;;;;;5144441;27;20455;-41
2021/09/10 12:01:28;;;;;;;1.37;0.90;;;17.70;99.90;;;;;;5143185;27;20442;-41
2021/09/10 12:04:02;;;;;;;0.90;0.63;;;17.80;99.90;;;;;;5130375;27;20449;-41
2021/09/10 12:06:35;;;;;;;1.07;0.90;;;17.80;99.90;;;;;;5145478;27;20813;-41
2021/09/10 12:09:14;;;;;;;1.10;1.07;;;17.70;99.90;;;;;;5143376;27;20424;-41
2021/09/10 12:12:06;;;;;;;1.10;1.00;;;17.80;99.90;;;;;;5143196;27;20457;-42
2021/09/10 12:14:42;;;;;;;1.10;1.00;;;17.90;99.90;;;;;;5143225;27;20424;-41
2021/09/10 12:17:19;;;;;;;1.20;0.90;;;17.90;99.90;;;;;;5144708;27;20743;-41
2021/09/10 12:20:11;;;;;;;1.53;0.90;;;17.80;99.90;;;;;;5144043;27;20444;-41
2021/09/10 12:22:59;;;;;;;1.10;1.00;;;17.90;99.90;;;;;;5143545;27;20451;-41
2021/09/10 12:25:40;;;;;;;0.60;0.60;;;17.90;99.90;;;;;;5143499;27;20419;-42
2021/09/10 12:28:21;;;;;;;0.80;0.80;;;17.90;99.90;;;;;;5143937;27;20437;-41
2021/09/10 12:30:59;;;;;;;0.70;0.63;;;18.00;99.90;;;;;;5143511;27;20443;-42
2021/09/10 12:33:31;;;;;;;0.90;0.90;;;17.90;99.90;;;;;;5143553;27;20464;-41
2021/09/10 12:36:06;;;;;;;0.50;0.50;;;18.00;99.90;;;;;;5137271;27;20424;-41
2021/09/10 12:38:38;;;;;;;0.60;0.60;;;18.00;99.90;;;;;;5143249;27;20441;-41
2021/09/10 12:41:10;;;;;;;0.60;0.60;;;18.00;99.90;;;;;;5141802;27;20445;-42
2021/09/10 12:43:43;;;;;;;0.87;0.80;;;18.00;99.90;;;;;;5142618;27;20415;-41
2021/09/10 12:46:13;;;;;;;0.90;0.90;;;18.00;99.90;;;;;;5144154;27;20442;-41
2021/09/10 12:48:44;;;;;;;1.07;0.97;;;18.00;99.90;;;;;;5143329;27;20440;-42
2021/09/10 12:51:15;;;;;;;1.07;0.80;;;18.00;99.90;;;;;;5144068;27;20530;-41
2021/09/10 12:53:47;;;;;;;0.80;0.80;;;18.00;99.90;;;;;;5142745;27;20427;-41
2021/09/10 12:56:18;;;;;;;1.10;0.90;;;18.00;99.90;;;;;;5143829;28;20950;-41
2021/09/10 12:58:51;;;;;;;1.70;0.97;;;18.00;99.90;;;;;;5140225;28;20509;-41
2021/09/10 13:01:22;;;;;;;1.10;0.73;;;18.00;99.90;;;;;;5136199;28;20444;-41
2021/09/10 13:03:53;;;;;;;0.70;0.70;;;18.00;99.90;;;;;;5143017;27;20453;-41
2021/09/10 13:06:24;;;;;;;2.50;1.00;;;18.00;99.90;;;;;;5143084;27;20445;-41
2021/09/10 13:08:55;;;;;;;1.47;0.60;;;18.00;99.90;;;;;;5142567;28;20435;-41
2021/09/10 13:11:26;;;;;;;0.80;0.80;;;18.00;99.90;;;;;;5141736;27;20455;-41
2021/09/10 13:14:00;;;;;;;1.03;0.80;;;18.00;99.90;;;;;;5145446;27;20494;-41
2021/09/10 13:16:31;;;;;;;1.70;0.80;;;18.00;99.90;;;;;;5147487;27;20906;-41
2021/09/10 13:19:02;;;;;;;1.10;0.80;;;18.00;99.90;;;;;;5143357;27;20513;-41